DEKMB EDDN-ZZZZ

Flight info

Callsign DEKMB
Flight time N/A
Altitude
Route DCT
Aircraft C172

Departure

Time 2026-05-05 13:12
Airport Nuremberg Airport (EDDN)

Arrival

Time N/A
Airport ZZZZ
Time Latitude Longitude Altitude Speed Heading
2026-05-05 13:12 49.44633 11.01751 1911 ft 119 kts 214°
2026-05-05 13:12 49.43928 11.01062 1948 ft 122 kts 214°
2026-05-05 13:13 49.43205 11.00343 1962 ft 124 kts 215°
2026-05-05 13:13 49.42672 10.99780 1985 ft 114 kts 217°
2026-05-05 13:13 49.42054 10.99113 1954 ft 104 kts 216°
2026-05-05 13:13 49.41471 10.98499 1906 ft 100 kts 216°
2026-05-05 13:14 49.40906 10.97907 1866 ft 97 kts 216°
2026-05-05 13:14 49.40348 10.97328 1801 ft 96 kts 216°
2026-05-05 13:14 49.39794 10.96757 1734 ft 95 kts 215°
2026-05-05 13:14 49.39229 10.96172 1729 ft 107 kts 216°
2026-05-05 13:15 49.38576 10.95508 1752 ft 117 kts 216°
2026-05-05 13:15 49.37892 10.94811 1849 ft 117 kts 215°
2026-05-05 13:15 49.37229 10.94126 1982 ft 115 kts 216°
2026-05-05 13:15 49.36569 10.93435 2108 ft 114 kts 216°
2026-05-05 13:16 49.35919 10.92747 2229 ft 113 kts 216°
2026-05-05 13:16 49.35278 10.92066 2350 ft 111 kts 216°
2026-05-05 13:16 49.34642 10.91390 2482 ft 111 kts 216°
2026-05-05 13:16 49.34003 10.90709 2609 ft 112 kts 216°
2026-05-05 13:17 49.33367 10.90033 2739 ft 110 kts 216°
2026-05-05 13:17 49.32737 10.89363 2837 ft 112 kts 216°
2026-05-05 13:17 49.32074 10.88653 2847 ft 120 kts 216°
2026-05-05 13:17 49.31381 10.87909 2847 ft 123 kts 216°
2026-05-05 13:18 49.30677 10.87152 2853 ft 127 kts 216°
2026-05-05 13:18 49.29954 10.86377 2844 ft 127 kts 216°
2026-05-05 13:18 49.29228 10.85600 2850 ft 128 kts 216°
2026-05-05 13:18 49.28499 10.84818 2846 ft 127 kts 216°
2026-05-05 13:19 49.27774 10.84041 2848 ft 128 kts 216°
2026-05-05 13:19 49.27044 10.83258 2845 ft 127 kts 216°
2026-05-05 13:19 49.26320 10.82483 2848 ft 127 kts 216°
2026-05-05 13:19 49.25595 10.81708 2843 ft 127 kts 216°
2026-05-05 13:20 49.24868 10.80933 2853 ft 127 kts 216°
2026-05-05 13:20 49.24151 10.80171 2846 ft 127 kts 216°
2026-05-05 13:20 49.23428 10.79409 2846 ft 125 kts 216°
2026-05-05 13:20 49.22714 10.78658 2840 ft 122 kts 216°
2026-05-05 13:21 49.22021 10.77934 2838 ft 120 kts 216°
2026-05-05 13:21 49.21335 10.77209 2839 ft 120 kts 216°
2026-05-05 13:21 49.20657 10.76491 2843 ft 119 kts 216°
2026-05-05 13:21 49.19983 10.75785 2831 ft 116 kts 216°
2026-05-05 13:22 49.19319 10.75090 2836 ft 115 kts 216°
2026-05-05 13:22 49.18662 10.74403 2838 ft 114 kts 216°
2026-05-05 13:22 49.18007 10.73724 2832 ft 114 kts 216°
2026-05-05 13:22 49.17347 10.73045 2837 ft 114 kts 216°
2026-05-05 13:23 49.16692 10.72371 2835 ft 114 kts 216°
2026-05-05 13:23 49.16036 10.71694 2836 ft 113 kts 216°
2026-05-05 13:23 49.15384 10.71029 2850 ft 117 kts 215°
2026-05-05 13:23 49.14695 10.70327 2846 ft 116 kts 216°
2026-05-05 13:24 49.14031 10.69644 2848 ft 118 kts 216°
2026-05-05 13:24 49.13356 10.68950 2849 ft 119 kts 217°
2026-05-05 13:24 49.12673 10.68254 2841 ft 116 kts 216°
2026-05-05 13:24 49.12001 10.67570 2861 ft 118 kts 216°
2026-05-05 13:25 49.11316 10.66864 2847 ft 117 kts 216°
2026-05-05 13:25 49.10640 10.66168 2837 ft 117 kts 216°
2026-05-05 13:25 49.09960 10.65485 2838 ft 118 kts 216°
2026-05-05 13:25 49.09269 10.64795 2839 ft 120 kts 216°
2026-05-05 13:26 49.08576 10.64105 2839 ft 118 kts 216°
2026-05-05 13:26 49.07896 10.63435 2841 ft 117 kts 216°
2026-05-05 13:26 49.07216 10.62773 2846 ft 117 kts 215°
2026-05-05 13:26 49.06522 10.62083 2849 ft 119 kts 216°
2026-05-05 13:27 49.05839 10.61391 2844 ft 117 kts 215°
2026-05-05 13:27 49.05161 10.60709 2853 ft 119 kts 216°
2026-05-05 13:27 49.04475 10.60018 2848 ft 123 kts 216°
2026-05-05 13:27 49.03758 10.59291 2852 ft 124 kts 216°
2026-05-05 13:28 49.03061 10.58594 2835 ft 115 kts 215°
2026-05-05 13:28 49.02406 10.57937 2836 ft 109 kts 217°
2026-05-05 13:28 49.01768 10.57336 2832 ft 108 kts 216°
2026-05-05 13:28 49.01089 10.56902 2833 ft 113 kts 181°
2026-05-05 13:29 49.00454 10.57610 2840 ft 126 kts 115°
2026-05-05 13:29 49.00549 10.58917 2832 ft 133 kts 54°
2026-05-05 13:29 49.01186 10.59906 2840 ft 128 kts 43°
2026-05-05 13:29 49.01837 10.60832 2848 ft 128 kts 41°
2026-05-05 13:30 49.02496 10.61762 2838 ft 133 kts 42°
2026-05-05 13:30 49.03174 10.62717 2853 ft 133 kts 41°
2026-05-05 13:30 49.03855 10.63683 2845 ft 135 kts 43°
2026-05-05 13:30 49.04531 10.64629 2850 ft 133 kts 43°
2026-05-05 13:31 49.05215 10.65596 2853 ft 134 kts 42°
2026-05-05 13:31 49.05901 10.66582 2853 ft 137 kts 42°
2026-05-05 13:31 49.06595 10.67580 2838 ft 137 kts 42°
2026-05-05 13:31 49.07296 10.68582 2840 ft 139 kts 42°
2026-05-05 13:32 49.07996 10.69582 2839 ft 137 kts 42°
2026-05-05 13:32 49.08688 10.70566 2845 ft 136 kts 42°
2026-05-05 13:32 49.09390 10.71545 2848 ft 138 kts 41°
2026-05-05 13:32 49.10096 10.72532 2842 ft 137 kts 42°
2026-05-05 13:33 49.10793 10.73514 2830 ft 136 kts 42°
2026-05-05 13:33 49.11487 10.74481 2840 ft 135 kts 42°
2026-05-05 13:33 49.12178 10.75457 2848 ft 137 kts 43°
2026-05-05 13:33 49.12885 10.76459 2847 ft 140 kts 41°
2026-05-05 13:34 49.13596 10.77470 2843 ft 141 kts 41°
2026-05-05 13:34 49.14310 10.78496 2829 ft 140 kts 41°
2026-05-05 13:34 49.15022 10.79506 2835 ft 139 kts 42°
2026-05-05 13:34 49.15723 10.80487 2831 ft 139 kts 42°
2026-05-05 13:35 49.16437 10.81482 2828 ft 138 kts 41°
2026-05-05 13:35 49.17145 10.82472 2831 ft 138 kts 42°
2026-05-05 13:35 49.17853 10.83466 2844 ft 139 kts 42°
2026-05-05 13:35 49.18565 10.84475 2835 ft 139 kts 42°
2026-05-05 13:36 49.19265 10.85479 2843 ft 137 kts 42°
2026-05-05 13:36 49.19852 10.86594 2832 ft 132 kts 55°
2026-05-05 13:36 49.20368 10.87734 2824 ft 128 kts 56°
2026-05-05 13:36 49.20869 10.88829 2827 ft 126 kts 56°
2026-05-05 13:37 49.21366 10.89909 2824 ft 124 kts 56°
2026-05-05 13:37 49.21863 10.90998 2824 ft 125 kts 54°
2026-05-05 13:37 49.22349 10.92074 2827 ft 121 kts 55°
2026-05-05 13:37 49.22826 10.93134 2826 ft 119 kts 54°
2026-05-05 13:38 49.23294 10.94176 2827 ft 119 kts 54°
2026-05-05 13:38 49.23766 10.95238 2824 ft 121 kts 54°
2026-05-05 13:38 49.24247 10.96308 2826 ft 123 kts 55°
2026-05-05 13:38 49.24739 10.97393 2822 ft 123 kts 55°
2026-05-05 13:39 49.25062 10.98095 2829 ft 122 kts 56°
2026-05-05 13:39 49.25703 10.99493 2821 ft 120 kts 54°
2026-05-05 13:39 49.26177 11.00530 2793 ft 118 kts 54°
2026-05-05 13:39 49.26649 11.01561 2796 ft 119 kts 56°
2026-05-05 13:40 49.27129 11.02613 2803 ft 122 kts 56°
2026-05-05 13:40 49.27449 11.03323 2795 ft 121 kts 54°
2026-05-05 13:40 49.27925 11.04375 2799 ft 120 kts 55°
2026-05-05 13:40 49.28400 11.05421 2795 ft 119 kts 54°
2026-05-05 13:41 49.28874 11.06470 2792 ft 120 kts 55°
2026-05-05 13:41 49.29347 11.07514 2794 ft 119 kts 55°
2026-05-05 13:41 49.29821 11.08555 2796 ft 121 kts 54°
2026-05-05 13:41 49.30300 11.09599 2804 ft 121 kts 55°